Aviation Digital Data Service (ADDS)

Output produced by METARs form (0607 UTC 28 September 2022)
found at http://www.aviationweather.gov/metar/data/
 
VTBU 280600Z 28008KT 9999 FEW020 30/24 Q1003 NOSIG
VTBU 280530Z 28009KT 9999 FEW020 30/24 Q1004 NOSIG
VTBU 280500Z 28008KT 9999 FEW020 29/24 Q1005 NOSIG
VTBU 280430Z 30008KT 9999 FEW020 SCT100 29/24 Q1005 NOSIG
VTBU 280400Z 33008KT 9999 FEW020 SCT100 29/24 Q1006 NOSIG
VTBU 280330Z 31009KT 9999 FEW020 SCT100 29/23 Q1006 NOSIG
VTBU 280300Z 29007KT 9999 FEW020 SCT100 29/23 Q1006 NOSIG
VTBU 280230Z 29007KT 9999 FEW020 29/24 Q1006 NOSIG
VTBU 280200Z 31006KT 9999 FEW020 29/24 Q1006 NOSIG
VTBU 280130Z 31004KT 9999 FEW020 29/24 Q1005 NOSIG
VTBU 280100Z 30005KT 9000 FEW020 SCT100 28/24 Q1005 NOSIG
VTBU 280030Z 31005KT 9000 FEW020 SCT100 27/24 Q1005 NOSIG
VTBU 280000Z 35003KT 9000 FEW020 SCT100 26/25 Q1004 NOSIG
VTBU 272330Z 32003KT 9000 FEW020 SCT100 26/24 Q1004 NOSIG
VTBU 272300Z 01004KT 9000 FEW020 SCT100 25/24 Q1004 NOSIG
VTBU 272230Z 33004KT 9000 FEW020 SCT100 26/24 Q1004 NOSIG
VTBU 272200Z 28004KT 9000 FEW020 SCT100 27/23 Q1004 NOSIG
VTBU 272130Z 27003KT 9000 FEW020 SCT100 27/24 Q1004 NOSIG
VTBU 272100Z 35003KT 9000 FEW020 SCT100 26/25 Q1004 NOSIG
VTBU 272030Z VRB02KT 9000 FEW020 SCT100 26/25 Q1004 NOSIG
VTBU 272000Z VRB02KT 9000 FEW020 SCT100 26/25 Q1005 NOSIG
VTBU 271930Z 03003KT 9000 FEW020 SCT100 26/25 Q1005 NOSIG
VTBU 271900Z 00000KT 9000 FEW020 SCT100 26/25 Q1005 NOSIG
VTBU 271830Z 07003KT 9000 FEW020 SCT100 26/25 Q1006 NOSIG
VTBU 271800Z 01003KT 9000 FEW020 SCT100 26/25 Q1006 NOSIG
VTBU 271730Z 01003KT 9000 FEW020 SCT100 26/25 Q1006 NOSIG
VTBU 271700Z 00000KT 9000 FEW020 SCT100 26/25 Q1007 NOSIG
VTBU 271630Z VRB02KT 9000 FEW020 SCT100 26/25 Q1007 NOSIG
VTBU 271600Z VRB02KT 9000 FEW020 SCT100 26/25 Q1008 NOSIG
VTBU 271530Z 02004KT 9000 FEW020 SCT100 26/25 Q1008 NOSIG
VTBU 271500Z VRB02KT 9000 FEW020 SCT100 27/24 Q1008 NOSIG
VTBU 271430Z 30003KT 9000 FEW020 SCT100 27/24 Q1008 NOSIG
VTBU 271400Z VRB02KT 9000 FEW020 SCT100 27/24 Q1008 NOSIG
VTBU 271330Z 25003KT 9000 FEW020 SCT100 27/24 Q1008 NOSIG
VTBU 271300Z 26004KT 9000 FEW020 SCT100 27/25 Q1007 NOSIG
VTBU 271230Z 33004KT 9000 FEW020 SCT100 27/25 Q1007 NOSIG
VTBU 271200Z 30004KT 9000 FEW020 SCT100 27/25 Q1006 NOSIG
VTBU 271130Z VRB02KT 9000 FEW020 SCT100 27/25 Q1006 NOSIG
VTBU 271100Z 31004KT 9000 FEW020 SCT100 27/25 Q1005 NOSIG
VTBU 271030Z 33004KT 9999 FEW020 SCT100 27/25 Q1005 NOSIG
VTBU 271000Z 35006KT 9999 FEW020 SCT100 28/25 Q1005 NOSIG
VTBU 270930Z 31004KT 9999 FEW020 SCT100 28/25 Q1005 NOSIG
VTBU 270900Z 30004KT 9999 FEW020 SCT100 28/24 Q1005 NOSIG
VTBU 270830Z 32006KT 9999 FEW020 SCT100 29/24 Q1005 NOSIG
VTBU 270800Z 33006KT 9999 FEW020 SCT100 29/24 Q1005 NOSIG
VTBU 270730Z 29006KT 9999 FEW020 SCT100 29/24 Q1005 NOSIG
VTBU 270700Z 27006KT 9999 FEW020 SCT100 30/24 Q1006 NOSIG
VTBU 270630Z 28008KT 9999 FEW020 SCT100 30/23 Q1006 NOSIG
VTBU 270600Z 27008KT 9999 FEW020 SCT100 30/24 Q1006 NOSIG
VTBU 270530Z 29008KT 9999 FEW020 SCT100 31/25 Q1007 NOSIG
TAF VTBU 280500Z 2806/2906 32008KT 9999 FEW020 SCT100 
     TEMPO 2809/2815 VRB15KT 4000 TSRA FEW018CB SCT035 BKN100